createdAt,value
2019-04-16T00:02:18.877Z,11.90
2019-04-16T00:07:55.843Z,12.23
2019-04-16T00:13:32.782Z,12.77
2019-04-16T00:19:05.712Z,13.00
2019-04-16T00:24:34.769Z,11.93
2019-04-16T00:30:05.979Z,12.20
2019-04-16T00:35:35.258Z,13.07
2019-04-16T00:41:04.541Z,13.23
2019-04-16T00:46:33.826Z,13.33
2019-04-16T00:52:05.626Z,12.77
2019-04-16T00:57:34.183Z,14.97
2019-04-16T01:03:03.453Z,13.97
2019-04-16T01:08:32.836Z,14.87
2019-04-16T01:14:02.098Z,13.60
2019-04-16T01:19:32.299Z,13.23
2019-04-16T01:25:02.894Z,13.57
2019-04-16T01:30:37.210Z,14.17
2019-04-16T01:36:10.831Z,15.10
2019-04-16T01:41:40.095Z,14.80
2019-04-16T01:47:09.370Z,14.43
2019-04-16T01:52:38.643Z,15.93
2019-04-16T01:58:07.903Z,14.70
2019-04-16T02:03:37.185Z,14.50
2019-04-16T02:09:21.275Z,15.00
2019-04-16T02:14:38.909Z,14.60
2019-04-16T02:20:08.325Z,14.67
2019-04-16T02:25:37.596Z,14.23
2019-04-16T02:31:13.940Z,15.27
2019-04-16T02:36:37.896Z,14.47
2019-04-16T02:42:07.155Z,18.10
2019-04-16T02:47:40.735Z,14.70
2019-04-16T02:53:09.080Z,16.10
2019-04-16T02:58:43.111Z,15.77
2019-04-16T03:04:17.716Z,15.70
2019-04-16T03:10:00.351Z,15.13
2019-04-16T03:15:19.631Z,15.67
2019-04-16T03:20:48.902Z,15.50
2019-04-16T03:26:18.346Z,15.60
2019-04-16T03:31:57.593Z,16.40
2019-04-16T03:37:19.638Z,14.63
2019-04-16T03:42:48.920Z,15.70
2019-04-16T03:48:20.608Z,15.30
2019-04-16T03:53:51.128Z,14.40
2019-04-16T03:59:20.764Z,14.20
2019-04-16T04:04:51.003Z,15.13
2019-04-16T04:10:30.258Z,14.53
2019-04-16T04:15:51.352Z,14.47
2019-04-16T04:21:22.454Z,15.20
2019-04-16T04:26:51.639Z,16.07
2019-04-16T04:32:20.922Z,14.33
2019-04-16T04:37:50.193Z,18.77
2019-04-16T04:43:19.465Z,14.70
2019-04-16T04:48:48.761Z,16.03
2019-04-16T04:54:22.023Z,16.33
2019-04-16T04:59:49.037Z,17.30
2019-04-16T05:05:25.580Z,16.90
2019-04-16T05:10:59.813Z,17.77
2019-04-16T05:16:25.577Z,17.83
2019-04-16T05:21:54.854Z,16.77
2019-04-16T05:27:24.204Z,17.30
2019-04-16T05:32:53.488Z,19.03
2019-04-16T05:38:24.858Z,17.37
2019-04-16T05:43:54.195Z,17.50
2019-04-16T05:49:25.862Z,17.23
2019-04-16T05:54:56.131Z,16.00
2019-04-16T06:00:45.013Z,16.17
2019-04-16T06:06:14.304Z,15.33
2019-04-16T06:11:43.579Z,15.90
2019-04-16T06:17:31.727Z,14.17
2019-04-16T06:23:00.981Z,15.37
2019-04-16T06:28:44.056Z,15.70
2019-04-16T06:34:23.693Z,17.50
2019-04-16T06:40:09.572Z,16.00
2019-04-16T06:45:46.543Z,14.27
2019-04-16T06:51:32.463Z,15.20
2019-04-16T06:57:04.322Z,14.33
2019-04-16T07:03:01.318Z,17.47
2019-04-16T07:08:22.846Z,14.50
2019-04-16T07:13:52.122Z,14.40
2019-04-16T07:19:21.441Z,15.27
2019-04-16T07:24:53.337Z,14.37
2019-04-16T07:30:39.956Z,14.80
2019-04-16T07:36:08.826Z,14.40
2019-04-16T07:41:48.889Z,15.30
2019-04-16T07:47:22.558Z,15.40
2019-04-16T07:52:56.536Z,16.87
2019-04-16T07:58:25.828Z,16.83
2019-04-16T08:03:56.888Z,16.20
2019-04-16T08:09:28.931Z,17.90
2019-04-16T08:15:12.569Z,15.53
2019-04-16T08:20:29.801Z,17.90
2019-04-16T08:26:04.094Z,17.33
2019-04-16T08:31:33.469Z,15.67
2019-04-16T08:37:02.741Z,16.23
2019-04-16T08:42:43.934Z,15.90
2019-04-16T08:48:03.129Z,15.90
2019-04-16T08:53:35.448Z,14.43
2019-04-16T08:59:09.492Z,16.20
2019-04-16T09:04:36.064Z,15.10
2019-04-16T09:10:17.112Z,15.23
2019-04-16T09:15:40.231Z,17.17
2019-04-16T09:21:10.548Z,13.70
2019-04-16T09:26:57.137Z,15.37
2019-04-16T09:32:36.828Z,14.63
2019-04-16T09:38:13.799Z,13.70
2019-04-16T09:43:57.973Z,15.20
2019-04-16T09:49:27.386Z,11.77
2019-04-16T09:54:56.665Z,11.70
2019-04-16T10:00:27.674Z,12.10
2019-04-16T10:05:56.965Z,11.63
2019-04-16T10:11:26.276Z,12.33
2019-04-16T10:16:55.693Z,12.20
2019-04-16T10:22:24.984Z,9.43
2019-04-16T10:27:55.910Z,10.47
2019-04-16T10:33:25.368Z,11.80
2019-04-16T10:38:56.273Z,11.20
2019-04-16T10:44:29.761Z,10.20
2019-04-16T10:50:16.861Z,8.13
2019-04-16T10:56:03.944Z,8.10
2019-04-16T11:01:35.356Z,8.70
2019-04-16T11:07:12.192Z,7.57
2019-04-16T11:12:41.470Z,8.40
2019-04-16T11:18:10.864Z,6.60
2019-04-16T11:23:40.176Z,7.60
2019-04-16T11:29:09.557Z,7.93
2019-04-16T11:34:38.918Z,8.67
2019-04-16T11:40:08.430Z,10.13
2019-04-16T11:45:38.801Z,10.23
2019-04-16T11:51:08.130Z,9.87
2019-04-16T11:56:37.557Z,8.27
2019-04-16T12:02:14.779Z,9.17
2019-04-16T12:07:48.428Z,9.03
2019-04-16T12:13:19.438Z,8.93
2019-04-16T12:18:50.366Z,9.23
2019-04-16T12:24:36.454Z,7.30
2019-04-16T12:30:25.012Z,7.60
2019-04-16T12:35:58.668Z,9.50
2019-04-16T12:41:34.558Z,9.17
2019-04-16T12:47:05.738Z,8.80
2019-04-16T12:52:54.985Z,10.90
2019-04-16T12:58:29.584Z,9.53
2019-04-16T13:04:09.247Z,9.07
2019-04-16T13:09:55.131Z,10.20
2019-04-16T13:15:26.059Z,9.17
2019-04-16T13:20:57.804Z,9.73
2019-04-16T13:26:29.727Z,10.70
2019-04-16T13:31:59.063Z,9.80
2019-04-16T13:37:30.401Z,9.43
2019-04-16T13:43:06.788Z,11.50
2019-04-16T13:48:47.819Z,11.10
2019-04-16T13:54:21.333Z,9.87
2019-04-16T14:00:11.802Z,8.50
2019-04-16T14:05:42.780Z,10.70
2019-04-16T14:11:12.282Z,11.80
2019-04-16T14:17:09.390Z,10.20
2019-04-16T14:22:33.285Z,11.07
2019-04-16T14:28:05.514Z,10.23
2019-04-16T14:33:40.464Z,10.20
2019-04-16T14:39:14.914Z,10.07
2019-04-16T14:44:47.680Z,10.37
2019-04-16T14:50:19.975Z,10.13
2019-04-16T14:55:59.647Z,10.40
2019-04-16T15:01:39.102Z,10.07
2019-04-16T15:07:11.898Z,10.20
2019-04-16T15:12:59.438Z,10.70
2019-04-16T15:18:46.849Z,10.20
2019-04-16T15:24:17.856Z,10.57
2019-04-16T15:30:00.951Z,11.00
2019-04-16T15:35:43.730Z,10.60
2019-04-16T15:41:17.325Z,10.53
2019-04-16T15:47:03.911Z,9.77
2019-04-16T15:52:49.709Z,10.07
2019-04-16T15:58:32.200Z,11.17
2019-04-16T16:04:07.140Z,10.07
2019-04-16T16:09:53.338Z,10.43
2019-04-16T16:15:24.555Z,10.37
2019-04-16T16:20:56.098Z,9.60
2019-04-16T16:26:26.241Z,9.30
2019-04-16T16:31:56.990Z,10.10
2019-04-16T16:37:27.167Z,9.50
2019-04-16T16:43:00.350Z,10.07
2019-04-16T16:48:33.243Z,9.37
2019-04-16T16:54:12.954Z,9.57
2019-04-16T17:05:32.695Z,9.43
2019-04-16T17:11:16.102Z,10.07
2019-04-16T17:16:34.980Z,10.40
2019-04-16T17:22:04.726Z,9.50
2019-04-16T17:27:50.238Z,8.67
2019-04-16T17:33:07.119Z,9.23
2019-04-16T17:38:37.802Z,9.07
2019-04-16T17:44:09.234Z,9.70
2019-04-16T17:49:41.853Z,8.70
2019-04-16T17:55:15.831Z,9.03
2019-04-16T18:01:03.422Z,9.27
2019-04-16T18:06:44.274Z,9.30
2019-04-16T18:12:21.951Z,10.63
2019-04-16T18:18:15.661Z,9.60
2019-04-16T18:24:01.032Z,10.93
2019-04-16T18:29:38.667Z,9.17
2019-04-16T18:35:17.640Z,9.00
2019-04-16T18:40:52.314Z,9.37
2019-04-16T18:46:27.079Z,9.20
2019-04-16T18:51:57.350Z,9.20
2019-04-16T18:57:27.011Z,9.70
2019-04-16T19:02:58.384Z,9.77
2019-04-16T19:08:41.631Z,9.10
2019-04-16T19:14:02.394Z,23.43
2019-04-16T19:19:31.763Z,11.13
2019-04-16T19:25:01.452Z,9.00
2019-04-16T19:30:32.846Z,9.30
2019-04-16T19:36:02.331Z,10.57
2019-04-16T19:41:31.961Z,10.57
2019-04-16T19:47:01.592Z,10.23
2019-04-16T19:52:32.672Z,10.00
2019-04-16T19:58:02.651Z,10.30
2019-04-16T20:03:32.374Z,8.70
2019-04-16T20:09:01.749Z,9.70
2019-04-16T20:14:35.354Z,9.47
2019-04-16T20:20:02.788Z,8.60
2019-04-16T20:25:32.260Z,9.07
2019-04-16T20:31:04.185Z,9.43
2019-04-16T20:36:32.950Z,9.57
2019-04-16T20:42:02.411Z,9.50
2019-04-16T20:47:38.630Z,8.30
2019-04-16T20:53:07.628Z,8.00
2019-04-16T20:58:35.206Z,9.00
2019-04-16T21:04:06.475Z,8.53
2019-04-16T21:09:35.802Z,8.90
2019-04-16T21:15:06.978Z,8.77
2019-04-16T21:20:36.597Z,9.10
2019-04-16T21:26:10.122Z,9.63
2019-04-16T21:31:47.570Z,8.40
2019-04-16T21:37:27.708Z,8.60
2019-04-16T21:42:57.421Z,9.27
2019-04-16T21:48:27.732Z,8.43
2019-04-16T21:54:09.383Z,9.70
2019-04-16T21:59:40.358Z,9.37
2019-04-16T22:05:10.914Z,9.70
2019-04-16T22:10:40.607Z,9.53
2019-04-16T22:16:10.343Z,9.50
2019-04-16T22:21:42.829Z,9.50
2019-04-16T22:27:11.459Z,9.90
2019-04-16T22:32:41.090Z,9.80
2019-04-16T22:38:46.077Z,9.80
2019-04-16T22:44:24.236Z,9.73
2019-04-16T22:49:56.713Z,10.90
2019-04-16T22:55:25.782Z,9.83
2019-04-16T23:00:59.806Z,10.07
2019-04-16T23:06:29.232Z,10.00
2019-04-16T23:12:10.901Z,9.97
2019-04-16T23:17:42.863Z,10.07
2019-04-16T23:23:11.639Z,10.63
2019-04-16T23:28:42.508Z,9.30
2019-04-16T23:34:12.749Z,9.40
2019-04-16T23:39:42.408Z,10.67
2019-04-16T23:45:31.428Z,10.10
2019-04-16T23:51:08.850Z,9.63
2019-04-16T23:56:49.783Z,9.80
